Terminal Aerodrome Forecast
Issued by NWS Wakefield, VA

Home | Current Version | Previous Version | Text Only | Print | Product List | Glossary On
Versions: 1 2 3 4 5 6 7 8 9 10 11 12 13 14 15 16 17 18 19 20 21
000
FTUS41 KAKQ 101100
TAFRIC
TAF
KRIC 101138Z 1012/1112 23003KT 5SM BR SCT012 SCT120
      TEMPO 1012/1015 3SM -RA BR FEW008 BKN030
     FM101600 20005KT P6SM SCT025 BKN150
     FM101800 15007KT P6SM BKN040=

USA.gov is the U.S. government's official web portal to all federal, state and local government web resources and services.